createdAt,value
2023-03-23T15:58:17.008Z,97785.66
2023-03-23T15:59:38.777Z,97780.40
2023-03-23T16:01:07.489Z,97785.63
2023-03-23T16:02:43.722Z,97786.60
2023-03-23T16:04:27.693Z,97789.41
2023-03-23T16:06:11.553Z,97785.61
2023-03-23T16:07:52.273Z,97789.20
2023-03-23T16:09:17.284Z,97783.06
2023-03-23T16:10:46.254Z,97790.41
2023-03-23T16:12:17.781Z,97786.06
2023-03-23T16:13:51.439Z,97791.98
2023-03-23T16:15:13.468Z,97791.84
2023-03-23T16:16:50.952Z,97791.50
2023-03-23T16:18:33.050Z,97790.31
2023-03-23T16:19:54.768Z,97787.73
2023-03-23T16:21:32.517Z,97788.85
2023-03-23T16:23:01.823Z,97783.34
2023-03-23T16:24:23.809Z,97790.77
2023-03-23T16:25:48.122Z,97785.14
2023-03-23T16:27:12.737Z,97793.23
2023-03-23T16:28:36.644Z,97805.15
2023-03-23T16:30:12.498Z,97805.16
2023-03-23T16:31:36.047Z,97810.97
2023-03-23T16:33:21.044Z,97809.23
2023-03-23T16:34:42.311Z,97797.02
2023-03-23T16:36:04.241Z,97800.03
2023-03-23T16:37:37.763Z,97802.99
2023-03-23T16:39:31.381Z,97797.00
2023-03-23T16:41:24.876Z,97809.02
2023-03-23T16:42:58.343Z,97801.66
2023-03-23T16:44:31.546Z,97796.16
2023-03-23T16:45:53.940Z,97797.04
2023-03-23T16:47:35.911Z,97795.94
2023-03-23T16:48:57.831Z,97794.34
2023-03-23T16:50:33.274Z,97802.25
2023-03-23T16:52:18.661Z,97804.21
2023-03-23T16:53:51.759Z,97804.63
2023-03-23T16:55:13.594Z,97794.41
2023-03-23T16:56:49.952Z,97801.30
2023-03-23T17:00:35.189Z,97798.17
2023-03-23T17:02:11.297Z,97799.31
2023-03-23T17:03:47.047Z,97801.77
2023-03-23T17:05:22.747Z,97800.98
2023-03-23T17:07:06.023Z,97801.81
2023-03-23T17:08:40.598Z,97806.27
2023-03-23T17:10:13.942Z,97811.33
2023-03-23T17:11:49.345Z,97815.50
2023-03-23T17:13:25.329Z,97803.09
2023-03-23T17:15:09.930Z,97814.42
2023-03-23T17:16:43.443Z,97803.20
2023-03-23T17:18:28.532Z,97817.48
2023-03-23T17:20:16.486Z,97821.27
2023-03-23T17:21:49.931Z,97818.85
2023-03-23T17:23:32.309Z,97818.56
2023-03-23T17:24:57.352Z,97823.72
2023-03-23T17:26:40.763Z,97828.42
2023-03-23T17:28:05.123Z,97830.90
2023-03-23T17:29:40.135Z,97826.64
2023-03-23T17:31:13.473Z,97832.23
2023-03-23T17:32:37.348Z,97835.45
2023-03-23T17:34:13.246Z,97838.04
2023-03-23T17:36:06.931Z,97838.66
2023-03-23T17:37:47.897Z,97842.27
2023-03-23T17:39:32.942Z,97845.48
2023-03-23T17:41:17.076Z,97841.48
2023-03-23T17:42:41.129Z,97846.10
2023-03-23T17:44:22.570Z,97846.66
2023-03-23T17:45:58.191Z,97848.30
2023-03-23T17:47:43.259Z,97848.21
2023-03-23T17:49:16.314Z,97845.20
2023-03-23T17:51:01.336Z,97843.96
2023-03-23T17:52:46.049Z,97849.45
2023-03-23T17:54:31.027Z,97850.35
2023-03-23T17:58:27.043Z,97849.75
2023-03-23T18:00:12.156Z,97850.38
2023-03-23T18:02:01.525Z,97848.64
2023-03-23T18:03:25.988Z,97844.83
2023-03-23T18:05:07.861Z,97835.27
2023-03-23T18:06:49.864Z,97847.52
2023-03-23T18:08:30.575Z,97851.20
2023-03-23T18:10:16.113Z,97853.39
2023-03-23T18:12:09.730Z,97852.21
2023-03-23T18:13:54.417Z,97846.55
2023-03-23T18:15:48.465Z,97852.26
2023-03-23T18:17:22.464Z,97857.48
2023-03-23T18:18:47.047Z,97854.65
2023-03-23T18:20:13.681Z,97845.73
2023-03-23T18:21:40.501Z,97861.95
2023-03-23T18:23:04.816Z,97863.31
2023-03-23T18:24:50.086Z,97863.28
2023-03-23T18:26:11.908Z,97853.35
2023-03-23T18:27:45.363Z,97857.60
2023-03-23T18:29:20.954Z,97861.17
2023-03-23T18:30:50.032Z,97861.69
2023-03-23T18:32:39.270Z,97865.84
2023-03-23T18:34:03.714Z,97867.29
2023-03-23T18:35:30.550Z,97866.00
2023-03-23T18:36:57.185Z,97869.90
2023-03-23T18:38:32.982Z,97871.17
2023-03-23T18:40:07.091Z,97871.48
2023-03-23T18:41:55.809Z,97877.02
2023-03-23T18:43:30.556Z,97875.64
2023-03-23T18:45:16.425Z,97877.05
2023-03-23T18:48:45.668Z,97868.46
2023-03-23T18:50:21.728Z,97869.83
2023-03-23T18:52:07.069Z,97867.35
2023-03-23T18:53:31.107Z,97868.04
2023-03-23T18:55:16.333Z,97866.23
2023-03-23T18:56:38.203Z,97869.11
2023-03-23T18:58:00.377Z,97870.86
2023-03-23T18:59:23.982Z,97871.51
2023-03-23T19:00:48.137Z,97873.97
2023-03-23T19:02:13.134Z,97870.38
2023-03-23T19:03:35.185Z,97870.27
2023-03-23T19:05:07.629Z,97869.23
2023-03-23T19:06:37.112Z,97868.13
2023-03-23T19:08:06.730Z,97856.15
2023-03-23T19:09:48.955Z,97866.58
2023-03-23T19:11:25.209Z,97867.48
2023-03-23T19:12:48.491Z,97867.98
2023-03-23T19:14:13.103Z,97866.37
2023-03-23T19:15:50.439Z,97868.64
2023-03-23T19:17:25.992Z,97870.08
2023-03-23T19:19:08.501Z,97870.69
2023-03-23T19:21:13.459Z,97873.25
2023-03-23T19:22:48.296Z,97874.00
2023-03-23T19:24:34.318Z,97873.19
2023-03-23T19:25:58.884Z,97874.92
2023-03-23T19:27:32.619Z,97879.53
2023-03-23T19:30:23.901Z,97866.45
2023-03-23T19:31:48.219Z,97864.64
2023-03-23T19:33:33.079Z,97872.52
2023-03-23T19:34:57.278Z,97870.08
2023-03-23T19:36:19.077Z,97870.98
2023-03-23T19:37:59.939Z,97867.25
2023-03-23T19:39:29.059Z,97867.45
2023-03-23T19:41:04.911Z,97869.48
2023-03-23T19:42:37.879Z,97865.23
2023-03-23T19:44:11.554Z,97862.76
2023-03-23T19:45:45.272Z,97868.23
2023-03-23T19:47:30.239Z,97867.75
2023-03-23T19:49:10.669Z,97877.58
2023-03-23T19:50:40.692Z,97874.89
2023-03-23T19:52:13.592Z,97873.59
2023-03-23T19:54:09.012Z,97869.16
2023-03-23T19:55:51.387Z,97865.02
2023-03-23T19:57:45.489Z,97861.00
2023-03-23T19:59:26.215Z,97874.06
2023-03-23T20:01:11.076Z,97880.65
2023-03-23T20:02:35.183Z,97888.19
2023-03-23T20:04:04.715Z,97875.25
2023-03-23T20:05:53.314Z,97880.09
2023-03-23T20:07:27.014Z,97864.56
2023-03-23T20:09:01.291Z,97872.93
2023-03-23T20:10:35.512Z,97860.80
2023-03-23T20:12:21.248Z,97876.18
2023-03-23T20:13:48.374Z,97874.08
2023-03-23T20:15:33.579Z,97871.06
2023-03-23T20:17:10.281Z,97874.70
2023-03-23T20:19:00.340Z,97873.42
2023-03-23T20:20:31.615Z,97871.43
2023-03-23T20:22:07.399Z,97864.48
2023-03-23T20:23:29.032Z,97864.59
2023-03-23T20:25:02.483Z,97864.45
2023-03-23T20:26:38.247Z,97862.89
2023-03-23T20:28:00.363Z,97858.89
2023-03-23T20:29:22.089Z,97859.29
2023-03-23T20:30:46.145Z,97867.09
2023-03-23T20:32:35.470Z,97860.41
2023-03-23T20:34:03.319Z,97862.34
2023-03-23T20:35:25.473Z,97858.13
2023-03-23T20:36:50.358Z,97861.73
2023-03-23T20:38:23.652Z,97864.59
2023-03-23T20:39:57.820Z,97867.45
2023-03-23T20:41:38.622Z,97868.23
2023-03-23T20:43:15.266Z,97872.22
2023-03-23T20:44:39.592Z,97871.20
2023-03-23T20:46:13.238Z,97870.80
2023-03-23T20:47:46.709Z,97877.50
2023-03-23T20:49:20.495Z,97874.98
2023-03-23T20:51:06.176Z,97874.67
2023-03-23T20:52:27.909Z,97877.04
2023-03-23T20:54:08.426Z,97868.36
2023-03-23T20:55:33.145Z,97875.92
2023-03-23T20:57:07.634Z,97880.84
2023-03-23T20:58:39.420Z,97878.79
2023-03-23T21:00:12.514Z,97880.32
2023-03-23T21:01:36.706Z,97885.19
2023-03-23T21:02:58.827Z,97887.74
2023-03-23T21:04:28.533Z,97885.12
2023-03-23T21:05:54.960Z,97883.77
2023-03-23T21:07:27.374Z,97888.34
2023-03-23T21:08:51.766Z,97886.06
2023-03-23T21:10:25.521Z,97889.64
2023-03-23T21:11:49.920Z,97887.33
2023-03-23T21:13:24.295Z,97881.23
2023-03-23T21:14:57.547Z,97886.47
2023-03-23T21:16:24.282Z,97884.53
2023-03-23T21:18:09.721Z,97881.61
2023-03-23T21:19:34.056Z,97874.61
2023-03-23T21:20:57.797Z,97886.45
2023-03-23T21:22:31.360Z,97883.73
2023-03-23T21:23:53.326Z,97884.20
2023-03-23T21:25:34.157Z,97879.90
2023-03-23T21:27:10.958Z,97878.60
2023-03-23T21:28:32.694Z,97876.52
2023-03-23T21:30:17.434Z,97877.46
2023-03-23T21:31:39.524Z,97874.44
2023-03-23T21:33:15.252Z,97875.09
2023-03-23T21:34:50.632Z,97877.64
2023-03-23T21:36:14.609Z,97878.95
2023-03-23T21:37:43.745Z,97874.46
2023-03-23T21:39:10.100Z,97875.61
2023-03-23T21:40:43.552Z,97874.38
2023-03-23T21:42:06.774Z,97878.85
2023-03-23T21:43:30.777Z,97877.52
2023-03-23T21:45:12.056Z,97875.05
2023-03-23T21:46:49.831Z,97878.12
2023-03-23T21:48:35.265Z,97881.35
2023-03-23T21:50:09.093Z,97886.92
2023-03-23T21:51:47.112Z,97877.27
2023-03-23T21:53:32.772Z,97883.69
2023-03-23T21:54:54.678Z,97888.52
2023-03-23T21:56:16.569Z,97890.20
2023-03-23T21:57:58.664Z,97888.30
2023-03-23T21:59:27.802Z,97886.39
2023-03-23T22:01:10.926Z,97883.81
2023-03-23T22:02:47.570Z,97882.62
2023-03-23T22:04:11.990Z,97891.37
2023-03-23T22:05:33.783Z,97889.85
2023-03-23T22:06:56.916Z,97891.91
2023-03-23T22:08:20.211Z,97892.35
2023-03-23T22:09:50.204Z,97891.20
2023-03-23T22:11:19.715Z,97899.92
2023-03-23T22:12:41.660Z,97898.84
2023-03-23T22:14:05.835Z,97892.95
2023-03-23T22:15:47.141Z,97895.23
2023-03-23T22:17:09.035Z,97895.31
2023-03-23T22:19:00.509Z,97893.19
2023-03-23T22:20:25.012Z,97890.70
2023-03-23T22:21:46.904Z,97893.63
2023-03-23T22:23:20.292Z,97893.61
2023-03-23T22:25:05.904Z,97888.16
2023-03-23T22:26:27.681Z,97886.62
2023-03-23T22:27:52.471Z,97890.58
2023-03-23T22:29:17.169Z,97890.28
2023-03-23T22:30:38.635Z,97887.48
2023-03-23T22:32:02.464Z,97885.02
2023-03-23T22:33:31.630Z,97889.73
2023-03-23T22:34:55.582Z,97887.80
2023-03-23T22:36:17.613Z,97886.18
2023-03-23T22:37:51.291Z,97887.60
2023-03-23T22:39:12.855Z,97888.30
2023-03-23T22:40:42.480Z,97892.50
2023-03-23T22:42:15.793Z,97895.88
2023-03-23T22:43:44.894Z,97893.77
2023-03-23T22:45:09.682Z,97894.59
2023-03-23T22:46:43.371Z,97887.48
2023-03-23T22:48:07.895Z,97887.55
2023-03-23T22:49:43.395Z,97889.13
2023-03-23T22:51:14.888Z,97892.73
2023-03-23T22:52:50.379Z,97892.70
2023-03-23T22:54:19.563Z,97895.23
2023-03-23T22:55:52.990Z,97891.23
2023-03-23T22:57:26.743Z,97893.48
2023-03-23T22:59:02.705Z,97893.49
2023-03-23T23:00:35.959Z,97899.23
2023-03-23T23:02:09.573Z,97903.65
2023-03-23T23:03:52.446Z,97905.31
2023-03-23T23:05:14.041Z,97908.69
2023-03-23T23:06:53.571Z,97900.48
2023-03-23T23:08:33.191Z,97908.23
2023-03-23T23:09:55.324Z,97912.89
2023-03-23T23:11:19.360Z,97914.17
2023-03-23T23:12:42.307Z,97915.64
2023-03-23T23:14:15.628Z,97911.41
2023-03-23T23:15:55.890Z,97912.06
2023-03-23T23:17:43.521Z,97917.35
2023-03-23T23:19:17.452Z,97915.43
2023-03-23T23:20:51.116Z,97915.58
2023-03-23T23:22:24.380Z,97917.27
2023-03-23T23:23:58.114Z,97918.05
2023-03-23T23:25:21.005Z,97919.45
2023-03-23T23:26:49.752Z,97918.73
2023-03-23T23:28:13.360Z,97907.67
2023-03-23T23:29:44.631Z,97916.14
2023-03-23T23:31:08.711Z,97920.98
2023-03-23T23:32:44.567Z,97919.98
2023-03-23T23:34:06.766Z,97919.36
2023-03-23T23:35:49.462Z,97915.35
2023-03-23T23:37:18.790Z,97917.74
2023-03-23T23:38:55.450Z,97913.61
2023-03-23T23:40:28.983Z,97912.02
2023-03-23T23:42:02.405Z,97913.02
2023-03-23T23:43:28.374Z,97913.02
2023-03-23T23:45:09.793Z,97911.03
2023-03-23T23:46:31.646Z,97910.34
2023-03-23T23:48:05.408Z,97908.06
2023-03-23T23:49:50.365Z,97907.94
2023-03-23T23:51:16.406Z,97910.27
2023-03-23T23:52:41.535Z,97907.09
2023-03-23T23:54:05.981Z,97909.91
2023-03-23T23:55:27.792Z,97896.67
2023-03-23T23:57:01.566Z,97894.34
2023-03-23T23:58:38.376Z,97910.20
